sensor_id;sensor_type;location;lat;lon;timestamp;P1;durP1;ratioP1;P2;durP2;ratioP2
11090;SDS011;5599;52.210;21.046;2023-03-01T00:01:50;56.30;;;33.07;;
11090;SDS011;5599;52.210;21.046;2023-03-01T00:04:20;48.27;;;33.20;;
11090;SDS011;5599;52.210;21.046;2023-03-01T00:06:49;54.93;;;33.27;;
11090;SDS011;5599;52.210;21.046;2023-03-01T00:09:19;53.17;;;34.77;;
11090;SDS011;5599;52.210;21.046;2023-03-01T00:11:50;51.30;;;34.33;;
11090;SDS011;5599;52.210;21.046;2023-03-01T00:14:19;53.83;;;33.70;;
11090;SDS011;5599;52.210;21.046;2023-03-01T00:16:49;51.63;;;33.53;;
11090;SDS011;5599;52.210;21.046;2023-03-01T00:19:19;51.63;;;33.23;;
11090;SDS011;5599;52.210;21.046;2023-03-01T00:21:49;54.53;;;33.67;;
11090;SDS011;5599;52.210;21.046;2023-03-01T00:24:19;68.17;;;44.63;;
11090;SDS011;5599;52.210;21.046;2023-03-01T00:26:49;56.53;;;35.43;;
11090;SDS011;5599;52.210;21.046;2023-03-01T00:29:22;55.40;;;33.27;;
11090;SDS011;5599;52.210;21.046;2023-03-01T00:31:52;54.20;;;33.40;;
11090;SDS011;5599;52.210;21.046;2023-03-01T00:34:22;54.07;;;33.70;;
11090;SDS011;5599;52.210;21.046;2023-03-01T00:36:51;57.70;;;36.57;;
11090;SDS011;5599;52.210;21.046;2023-03-01T00:39:21;52.87;;;33.10;;
11090;SDS011;5599;52.210;21.046;2023-03-01T00:41:52;52.80;;;32.53;;
11090;SDS011;5599;52.210;21.046;2023-03-01T00:44:21;55.83;;;34.97;;
11090;SDS011;5599;52.210;21.046;2023-03-01T00:46:50;52.73;;;34.03;;
11090;SDS011;5599;52.210;21.046;2023-03-01T00:49:20;54.23;;;34.40;;
11090;SDS011;5599;52.210;21.046;2023-03-01T00:51:51;52.47;;;33.90;;
11090;SDS011;5599;52.210;21.046;2023-03-01T00:54:23;49.63;;;32.53;;
11090;SDS011;5599;52.210;21.046;2023-03-01T00:56:54;55.07;;;34.30;;
11090;SDS011;5599;52.210;21.046;2023-03-01T00:59:23;52.37;;;33.13;;
11090;SDS011;5599;52.210;21.046;2023-03-01T01:01:53;51.13;;;34.17;;
11090;SDS011;5599;52.210;21.046;2023-03-01T01:04:22;52.03;;;33.57;;
11090;SDS011;5599;52.210;21.046;2023-03-01T01:06:52;50.03;;;33.90;;
11090;SDS011;5599;52.210;21.046;2023-03-01T01:09:21;50.30;;;32.73;;
11090;SDS011;5599;52.210;21.046;2023-03-01T01:11:51;50.90;;;31.37;;
11090;SDS011;5599;52.210;21.046;2023-03-01T01:14:22;50.37;;;33.47;;
11090;SDS011;5599;52.210;21.046;2023-03-01T01:16:51;47.97;;;30.40;;
11090;SDS011;5599;52.210;21.046;2023-03-01T01:19:22;48.57;;;31.60;;
11090;SDS011;5599;52.210;21.046;2023-03-01T01:21:54;52.30;;;33.40;;
11090;SDS011;5599;52.210;21.046;2023-03-01T01:24:24;52.07;;;32.87;;
11090;SDS011;5599;52.210;21.046;2023-03-01T01:26:53;51.30;;;32.40;;
11090;SDS011;5599;52.210;21.046;2023-03-01T01:29:24;49.77;;;32.37;;
11090;SDS011;5599;52.210;21.046;2023-03-01T01:31:53;50.30;;;31.73;;
11090;SDS011;5599;52.210;21.046;2023-03-01T01:34:23;45.63;;;30.60;;
11090;SDS011;5599;52.210;21.046;2023-03-01T01:36:53;50.47;;;32.70;;
11090;SDS011;5599;52.210;21.046;2023-03-01T01:39:22;43.87;;;30.37;;
11090;SDS011;5599;52.210;21.046;2023-03-01T01:41:51;50.10;;;30.37;;
11090;SDS011;5599;52.210;21.046;2023-03-01T01:44:22;45.20;;;30.77;;
11090;SDS011;5599;52.210;21.046;2023-03-01T01:46:55;46.83;;;29.63;;
11090;SDS011;5599;52.210;21.046;2023-03-01T01:49:29;44.97;;;30.53;;
11090;SDS011;5599;52.210;21.046;2023-03-01T01:52:07;49.40;;;30.03;;
11090;SDS011;5599;52.210;21.046;2023-03-01T01:54:40;47.10;;;31.33;;
11090;SDS011;5599;52.210;21.046;2023-03-01T01:57:14;45.40;;;28.97;;
11090;SDS011;5599;52.210;21.046;2023-03-01T01:59:49;43.20;;;28.43;;
11090;SDS011;5599;52.210;21.046;2023-03-01T02:02:22;50.20;;;29.50;;
11090;SDS011;5599;52.210;21.046;2023-03-01T02:04:52;48.87;;;30.40;;
11090;SDS011;5599;52.210;21.046;2023-03-01T02:07:32;45.17;;;31.57;;
11090;SDS011;5599;52.210;21.046;2023-03-01T02:10:01;47.73;;;29.53;;
11090;SDS011;5599;52.210;21.046;2023-03-01T02:12:31;44.80;;;29.70;;
11090;SDS011;5599;52.210;21.046;2023-03-01T02:15:04;48.53;;;30.50;;
11090;SDS011;5599;52.210;21.046;2023-03-01T02:17:34;50.43;;;30.03;;
11090;SDS011;5599;52.210;21.046;2023-03-01T02:20:07;42.07;;;28.53;;
11090;SDS011;5599;52.210;21.046;2023-03-01T02:22:43;44.53;;;27.87;;
11090;SDS011;5599;52.210;21.046;2023-03-01T02:25:23;44.30;;;28.40;;
11090;SDS011;5599;52.210;21.046;2023-03-01T02:27:58;42.37;;;28.23;;
11090;SDS011;5599;52.210;21.046;2023-03-01T02:30:38;47.67;;;29.40;;
11090;SDS011;5599;52.210;21.046;2023-03-01T02:33:29;45.57;;;29.07;;
11090;SDS011;5599;52.210;21.046;2023-03-01T02:36:00;45.03;;;30.17;;
11090;SDS011;5599;52.210;21.046;2023-03-01T02:38:32;46.03;;;29.07;;
11090;SDS011;5599;52.210;21.046;2023-03-01T02:41:01;46.70;;;29.20;;
11090;SDS011;5599;52.210;21.046;2023-03-01T02:43:33;50.63;;;30.40;;
11090;SDS011;5599;52.210;21.046;2023-03-01T02:46:06;47.10;;;29.13;;
11090;SDS011;5599;52.210;21.046;2023-03-01T02:48:43;49.00;;;30.50;;
11090;SDS011;5599;52.210;21.046;2023-03-01T02:51:20;46.77;;;30.63;;
11090;SDS011;5599;52.210;21.046;2023-03-01T02:54:07;47.47;;;32.23;;
11090;SDS011;5599;52.210;21.046;2023-03-01T02:56:41;52.23;;;31.60;;
11090;SDS011;5599;52.210;21.046;2023-03-01T02:59:11;49.03;;;29.97;;
11090;SDS011;5599;52.210;21.046;2023-03-01T03:01:42;55.33;;;31.87;;
11090;SDS011;5599;52.210;21.046;2023-03-01T03:04:14;50.67;;;31.17;;
11090;SDS011;5599;52.210;21.046;2023-03-01T03:06:48;50.47;;;30.73;;
11090;SDS011;5599;52.210;21.046;2023-03-01T03:09:18;48.20;;;30.97;;
11090;SDS011;5599;52.210;21.046;2023-03-01T03:11:47;53.13;;;31.60;;
11090;SDS011;5599;52.210;21.046;2023-03-01T03:14:17;46.13;;;30.53;;
11090;SDS011;5599;52.210;21.046;2023-03-01T03:16:49;63.67;;;31.93;;
11090;SDS011;5599;52.210;21.046;2023-03-01T03:19:18;47.70;;;31.90;;
11090;SDS011;5599;52.210;21.046;2023-03-01T03:21:48;48.90;;;29.80;;
11090;SDS011;5599;52.210;21.046;2023-03-01T03:24:18;47.50;;;30.37;;
11090;SDS011;5599;52.210;21.046;2023-03-01T03:26:48;45.53;;;30.30;;
11090;SDS011;5599;52.210;21.046;2023-03-01T03:29:17;48.93;;;30.53;;
11090;SDS011;5599;52.210;21.046;2023-03-01T03:31:46;45.43;;;30.77;;
11090;SDS011;5599;52.210;21.046;2023-03-01T03:34:17;45.80;;;28.73;;
11090;SDS011;5599;52.210;21.046;2023-03-01T03:36:46;45.57;;;29.97;;
11090;SDS011;5599;52.210;21.046;2023-03-01T03:39:16;47.10;;;30.13;;
11090;SDS011;5599;52.210;21.046;2023-03-01T03:41:46;46.70;;;29.77;;
11090;SDS011;5599;52.210;21.046;2023-03-01T03:44:15;44.20;;;29.67;;
11090;SDS011;5599;52.210;21.046;2023-03-01T03:46:45;47.93;;;29.13;;
11090;SDS011;5599;52.210;21.046;2023-03-01T03:49:16;45.20;;;28.20;;
11090;SDS011;5599;52.210;21.046;2023-03-01T03:51:45;48.33;;;31.00;;
11090;SDS011;5599;52.210;21.046;2023-03-01T03:54:14;47.20;;;29.90;;
11090;SDS011;5599;52.210;21.046;2023-03-01T03:56:44;47.23;;;29.83;;
11090;SDS011;5599;52.210;21.046;2023-03-01T03:59:13;50.20;;;30.27;;
11090;SDS011;5599;52.210;21.046;2023-03-01T04:01:43;46.27;;;30.50;;
11090;SDS011;5599;52.210;21.046;2023-03-01T04:04:12;48.03;;;30.63;;
11090;SDS011;5599;52.210;21.046;2023-03-01T04:06:46;46.97;;;30.20;;
11090;SDS011;5599;52.210;21.046;2023-03-01T04:09:16;46.80;;;29.20;;
11090;SDS011;5599;52.210;21.046;2023-03-01T04:11:45;47.33;;;29.50;;
11090;SDS011;5599;52.210;21.046;2023-03-01T04:14:14;48.73;;;29.87;;
11090;SDS011;5599;52.210;21.046;2023-03-01T04:16:44;49.07;;;29.53;;
11090;SDS011;5599;52.210;21.046;2023-03-01T04:19:13;46.73;;;29.57;;
11090;SDS011;5599;52.210;21.046;2023-03-01T04:21:43;49.80;;;31.30;;
11090;SDS011;5599;52.210;21.046;2023-03-01T04:24:14;46.17;;;29.27;;
11090;SDS011;5599;52.210;21.046;2023-03-01T04:26:43;48.53;;;31.07;;
11090;SDS011;5599;52.210;21.046;2023-03-01T04:29:12;52.27;;;31.13;;
11090;SDS011;5599;52.210;21.046;2023-03-01T04:31:42;51.07;;;30.90;;
11090;SDS011;5599;52.210;21.046;2023-03-01T04:34:11;52.80;;;29.77;;
11090;SDS011;5599;52.210;21.046;2023-03-01T04:36:41;47.10;;;29.00;;
11090;SDS011;5599;52.210;21.046;2023-03-01T04:39:10;46.20;;;29.87;;
11090;SDS011;5599;52.210;21.046;2023-03-01T04:41:41;46.90;;;28.80;;
11090;SDS011;5599;52.210;21.046;2023-03-01T04:44:11;50.07;;;29.43;;
11090;SDS011;5599;52.210;21.046;2023-03-01T04:46:40;49.83;;;30.17;;
11090;SDS011;5599;52.210;21.046;2023-03-01T04:49:09;49.30;;;31.93;;
11090;SDS011;5599;52.210;21.046;2023-03-01T04:51:39;48.93;;;31.23;;
11090;SDS011;5599;52.210;21.046;2023-03-01T04:54:08;51.90;;;31.70;;
11090;SDS011;5599;52.210;21.046;2023-03-01T04:56:37;50.70;;;31.67;;
11090;SDS011;5599;52.210;21.046;2023-03-01T04:59:08;50.57;;;32.43;;
11090;SDS011;5599;52.210;21.046;2023-03-01T05:01:39;45.77;;;31.03;;
11090;SDS011;5599;52.210;21.046;2023-03-01T05:04:10;55.30;;;32.80;;
11090;SDS011;5599;52.210;21.046;2023-03-01T05:06:39;50.27;;;31.37;;
11090;SDS011;5599;52.210;21.046;2023-03-01T05:09:09;53.67;;;31.47;;
11090;SDS011;5599;52.210;21.046;2023-03-01T05:11:39;54.67;;;31.73;;
11090;SDS011;5599;52.210;21.046;2023-03-01T05:14:10;54.13;;;33.10;;
11090;SDS011;5599;52.210;21.046;2023-03-01T05:16:39;57.40;;;31.87;;
11090;SDS011;5599;52.210;21.046;2023-03-01T05:19:09;47.10;;;31.13;;
11090;SDS011;5599;52.210;21.046;2023-03-01T05:21:42;47.67;;;32.23;;
11090;SDS011;5599;52.210;21.046;2023-03-01T05:24:32;48.40;;;31.43;;
11090;SDS011;5599;52.210;21.046;2023-03-01T05:27:02;51.23;;;30.63;;
11090;SDS011;5599;52.210;21.046;2023-03-01T05:29:34;53.33;;;32.60;;
11090;SDS011;5599;52.210;21.046;2023-03-01T05:32:04;47.70;;;31.17;;
11090;SDS011;5599;52.210;21.046;2023-03-01T05:34:34;51.07;;;32.47;;
11090;SDS011;5599;52.210;21.046;2023-03-01T05:37:04;46.97;;;31.10;;
11090;SDS011;5599;52.210;21.046;2023-03-01T05:39:34;50.73;;;31.20;;
11090;SDS011;5599;52.210;21.046;2023-03-01T05:42:04;46.67;;;30.63;;
11090;SDS011;5599;52.210;21.046;2023-03-01T05:44:37;50.37;;;31.27;;
11090;SDS011;5599;52.210;21.046;2023-03-01T05:47:07;46.80;;;31.70;;
11090;SDS011;5599;52.210;21.046;2023-03-01T05:49:36;47.30;;;30.37;;
11090;SDS011;5599;52.210;21.046;2023-03-01T05:52:05;48.27;;;31.47;;
11090;SDS011;5599;52.210;21.046;2023-03-01T05:54:35;47.63;;;30.70;;
11090;SDS011;5599;52.210;21.046;2023-03-01T05:57:05;49.60;;;30.03;;
11090;SDS011;5599;52.210;21.046;2023-03-01T05:59:34;49.63;;;30.47;;
11090;SDS011;5599;52.210;21.046;2023-03-01T06:02:05;50.50;;;30.60;;
11090;SDS011;5599;52.210;21.046;2023-03-01T06:04:35;48.77;;;30.27;;
11090;SDS011;5599;52.210;21.046;2023-03-01T06:07:04;78.70;;;50.97;;
11090;SDS011;5599;52.210;21.046;2023-03-01T06:09:33;44.80;;;30.93;;
11090;SDS011;5599;52.210;21.046;2023-03-01T06:12:03;50.07;;;31.80;;
11090;SDS011;5599;52.210;21.046;2023-03-01T06:14:33;45.60;;;29.30;;
11090;SDS011;5599;52.210;21.046;2023-03-01T06:17:02;46.43;;;31.27;;
11090;SDS011;5599;52.210;21.046;2023-03-01T06:19:33;47.00;;;29.63;;
11090;SDS011;5599;52.210;21.046;2023-03-01T06:22:02;45.50;;;30.97;;
11090;SDS011;5599;52.210;21.046;2023-03-01T06:24:32;45.40;;;28.00;;
11090;SDS011;5599;52.210;21.046;2023-03-01T06:27:01;44.23;;;28.67;;
11090;SDS011;5599;52.210;21.046;2023-03-01T06:29:30;45.13;;;29.10;;
11090;SDS011;5599;52.210;21.046;2023-03-01T06:32:00;45.57;;;28.97;;
11090;SDS011;5599;52.210;21.046;2023-03-01T06:34:30;46.10;;;28.23;;
11090;SDS011;5599;52.210;21.046;2023-03-01T06:37:00;44.00;;;29.40;;
11090;SDS011;5599;52.210;21.046;2023-03-01T06:39:32;42.37;;;28.30;;
11090;SDS011;5599;52.210;21.046;2023-03-01T06:42:02;42.73;;;29.07;;
11090;SDS011;5599;52.210;21.046;2023-03-01T06:44:32;43.50;;;27.47;;
11090;SDS011;5599;52.210;21.046;2023-03-01T06:47:01;39.20;;;28.10;;
11090;SDS011;5599;52.210;21.046;2023-03-01T06:49:33;44.60;;;26.83;;
11090;SDS011;5599;52.210;21.046;2023-03-01T06:52:02;43.80;;;28.43;;
11090;SDS011;5599;52.210;21.046;2023-03-01T06:54:32;40.27;;;28.37;;
11090;SDS011;5599;52.210;21.046;2023-03-01T06:57:01;40.63;;;28.33;;
11090;SDS011;5599;52.210;21.046;2023-03-01T06:59:30;43.20;;;28.53;;
11090;SDS011;5599;52.210;21.046;2023-03-01T07:02:00;40.83;;;27.10;;
11090;SDS011;5599;52.210;21.046;2023-03-01T07:04:29;45.20;;;29.07;;
11090;SDS011;5599;52.210;21.046;2023-03-01T07:07:00;36.27;;;27.27;;
11090;SDS011;5599;52.210;21.046;2023-03-01T07:09:30;38.13;;;28.50;;
11090;SDS011;5599;52.210;21.046;2023-03-01T07:11:59;48.40;;;29.50;;
11090;SDS011;5599;52.210;21.046;2023-03-01T07:14:28;38.63;;;28.20;;
11090;SDS011;5599;52.210;21.046;2023-03-01T07:16:58;35.40;;;27.03;;
11090;SDS011;5599;52.210;21.046;2023-03-01T07:19:27;37.47;;;27.07;;
11090;SDS011;5599;52.210;21.046;2023-03-01T07:21:56;39.17;;;28.90;;
11090;SDS011;5599;52.210;21.046;2023-03-01T07:24:27;38.60;;;26.97;;
11090;SDS011;5599;52.210;21.046;2023-03-01T07:26:57;35.63;;;27.23;;
11090;SDS011;5599;52.210;21.046;2023-03-01T07:29:27;39.70;;;27.80;;
11090;SDS011;5599;52.210;21.046;2023-03-01T07:31:57;35.73;;;25.57;;
11090;SDS011;5599;52.210;21.046;2023-03-01T07:34:26;35.93;;;26.53;;
11090;SDS011;5599;52.210;21.046;2023-03-01T07:36:55;36.57;;;26.37;;
11090;SDS011;5599;52.210;21.046;2023-03-01T07:39:26;37.37;;;26.33;;
11090;SDS011;5599;52.210;21.046;2023-03-01T07:41:56;36.60;;;26.87;;
11090;SDS011;5599;52.210;21.046;2023-03-01T07:44:26;33.47;;;23.67;;
11090;SDS011;5599;52.210;21.046;2023-03-01T07:46:55;35.67;;;24.77;;
11090;SDS011;5599;52.210;21.046;2023-03-01T07:49:25;37.43;;;23.97;;
11090;SDS011;5599;52.210;21.046;2023-03-01T07:51:55;34.63;;;23.40;;
11090;SDS011;5599;52.210;21.046;2023-03-01T07:54:24;31.37;;;24.03;;
11090;SDS011;5599;52.210;21.046;2023-03-01T07:57:00;31.03;;;23.93;;
11090;SDS011;5599;52.210;21.046;2023-03-01T07:59:32;31.90;;;21.73;;
11090;SDS011;5599;52.210;21.046;2023-03-01T08:02:02;31.13;;;24.30;;
11090;SDS011;5599;52.210;21.046;2023-03-01T08:04:33;31.33;;;23.43;;
11090;SDS011;5599;52.210;21.046;2023-03-01T08:07:05;30.10;;;21.83;;
11090;SDS011;5599;52.210;21.046;2023-03-01T08:09:38;28.00;;;21.90;;
11090;SDS011;5599;52.210;21.046;2023-03-01T08:12:10;30.23;;;21.43;;
11090;SDS011;5599;52.210;21.046;2023-03-01T08:14:41;30.77;;;22.07;;
11090;SDS011;5599;52.210;21.046;2023-03-01T08:17:13;24.93;;;21.50;;
11090;SDS011;5599;52.210;21.046;2023-03-01T08:19:44;23.57;;;19.93;;
11090;SDS011;5599;52.210;21.046;2023-03-01T08:22:14;25.53;;;19.70;;
11090;SDS011;5599;52.210;21.046;2023-03-01T08:24:47;23.53;;;18.43;;
11090;SDS011;5599;52.210;21.046;2023-03-01T08:27:18;30.90;;;19.87;;
11090;SDS011;5599;52.210;21.046;2023-03-01T08:29:52;24.43;;;20.43;;
11090;SDS011;5599;52.210;21.046;2023-03-01T08:32:22;22.73;;;18.60;;
11090;SDS011;5599;52.210;21.046;2023-03-01T08:34:54;30.20;;;19.20;;
11090;SDS011;5599;52.210;21.046;2023-03-01T08:37:26;22.43;;;19.27;;
11090;SDS011;5599;52.210;21.046;2023-03-01T08:40:00;24.30;;;18.70;;
11090;SDS011;5599;52.210;21.046;2023-03-01T08:42:35;25.00;;;19.30;;
11090;SDS011;5599;52.210;21.046;2023-03-01T08:45:07;22.40;;;18.27;;
11090;SDS011;5599;52.210;21.046;2023-03-01T08:47:37;22.97;;;18.43;;
11090;SDS011;5599;52.210;21.046;2023-03-01T08:50:07;23.53;;;18.57;;
11090;SDS011;5599;52.210;21.046;2023-03-01T08:52:37;22.37;;;18.20;;
11090;SDS011;5599;52.210;21.046;2023-03-01T08:55:08;27.43;;;19.37;;
11090;SDS011;5599;52.210;21.046;2023-03-01T08:57:38;27.10;;;19.73;;
11090;SDS011;5599;52.210;21.046;2023-03-01T09:00:08;26.07;;;20.50;;
11090;SDS011;5599;52.210;21.046;2023-03-01T09:02:42;29.13;;;20.97;;
11090;SDS011;5599;52.210;21.046;2023-03-01T09:05:13;28.47;;;19.73;;
11090;SDS011;5599;52.210;21.046;2023-03-01T09:07:45;25.47;;;20.87;;
11090;SDS011;5599;52.210;21.046;2023-03-01T09:10:16;27.97;;;21.13;;
11090;SDS011;5599;52.210;21.046;2023-03-01T09:12:47;26.37;;;19.77;;
11090;SDS011;5599;52.210;21.046;2023-03-01T09:15:16;30.03;;;21.57;;
11090;SDS011;5599;52.210;21.046;2023-03-01T09:17:46;27.87;;;20.50;;
11090;SDS011;5599;52.210;21.046;2023-03-01T09:20:16;28.73;;;20.70;;
11090;SDS011;5599;52.210;21.046;2023-03-01T09:22:46;25.80;;;19.47;;
11090;SDS011;5599;52.210;21.046;2023-03-01T09:25:16;27.23;;;21.60;;
11090;SDS011;5599;52.210;21.046;2023-03-01T09:27:46;27.03;;;20.43;;
11090;SDS011;5599;52.210;21.046;2023-03-01T09:30:16;24.43;;;21.07;;
11090;SDS011;5599;52.210;21.046;2023-03-01T09:32:45;26.70;;;19.93;;
11090;SDS011;5599;52.210;21.046;2023-03-01T09:35:15;25.83;;;20.27;;
11090;SDS011;5599;52.210;21.046;2023-03-01T09:37:47;33.83;;;21.63;;
11090;SDS011;5599;52.210;21.046;2023-03-01T09:40:19;26.60;;;20.63;;
11090;SDS011;5599;52.210;21.046;2023-03-01T09:42:52;26.63;;;19.43;;
11090;SDS011;5599;52.210;21.046;2023-03-01T09:45:27;25.27;;;19.70;;
11090;SDS011;5599;52.210;21.046;2023-03-01T09:48:01;28.57;;;20.17;;
11090;SDS011;5599;52.210;21.046;2023-03-01T09:50:33;27.50;;;20.63;;
11090;SDS011;5599;52.210;21.046;2023-03-01T09:53:09;24.70;;;19.77;;
11090;SDS011;5599;52.210;21.046;2023-03-01T09:55:44;23.73;;;17.90;;
11090;SDS011;5599;52.210;21.046;2023-03-01T10:01:20;25.53;;;19.03;;
11090;SDS011;5599;52.210;21.046;2023-03-01T10:04:02;23.53;;;18.20;;
11090;SDS011;5599;52.210;21.046;2023-03-01T10:06:40;23.57;;;17.57;;
11090;SDS011;5599;52.210;21.046;2023-03-01T10:09:16;23.73;;;17.93;;
11090;SDS011;5599;52.210;21.046;2023-03-01T10:11:48;21.03;;;16.33;;
11090;SDS011;5599;52.210;21.046;2023-03-01T10:14:24;20.83;;;16.67;;
11090;SDS011;5599;52.210;21.046;2023-03-01T10:16:59;22.20;;;16.43;;
11090;SDS011;5599;52.210;21.046;2023-03-01T10:19:33;18.60;;;15.40;;
11090;SDS011;5599;52.210;21.046;2023-03-01T10:22:11;20.90;;;15.10;;
11090;SDS011;5599;52.210;21.046;2023-03-01T10:24:42;20.63;;;15.77;;
11090;SDS011;5599;52.210;21.046;2023-03-01T10:27:16;25.97;;;16.07;;
11090;SDS011;5599;52.210;21.046;2023-03-01T10:29:53;18.20;;;13.93;;
11090;SDS011;5599;52.210;21.046;2023-03-01T10:32:41;17.70;;;14.57;;
11090;SDS011;5599;52.210;21.046;2023-03-01T10:35:32;16.93;;;14.00;;
11090;SDS011;5599;52.210;21.046;2023-03-01T10:38:12;18.50;;;14.47;;
11090;SDS011;5599;52.210;21.046;2023-03-01T10:40:52;16.80;;;13.60;;
11090;SDS011;5599;52.210;21.046;2023-03-01T10:43:27;16.73;;;13.60;;
11090;SDS011;5599;52.210;21.046;2023-03-01T10:46:21;20.17;;;14.43;;
11090;SDS011;5599;52.210;21.046;2023-03-01T10:51:49;15.90;;;12.93;;
11090;SDS011;5599;52.210;21.046;2023-03-01T10:54:20;16.10;;;13.00;;
11090;SDS011;5599;52.210;21.046;2023-03-01T10:56:55;17.67;;;12.60;;
11090;SDS011;5599;52.210;21.046;2023-03-01T10:59:28;16.67;;;13.13;;
11090;SDS011;5599;52.210;21.046;2023-03-01T11:02:07;17.37;;;12.67;;
11090;SDS011;5599;52.210;21.046;2023-03-01T11:05:01;16.67;;;12.57;;
11090;SDS011;5599;52.210;21.046;2023-03-01T11:07:48;15.83;;;11.90;;
11090;SDS011;5599;52.210;21.046;2023-03-01T11:10:20;16.93;;;12.70;;
11090;SDS011;5599;52.210;21.046;2023-03-01T11:12:51;16.77;;;12.27;;
11090;SDS011;5599;52.210;21.046;2023-03-01T11:15:24;14.63;;;11.57;;
11090;SDS011;5599;52.210;21.046;2023-03-01T11:17:55;15.00;;;11.23;;
11090;SDS011;5599;52.210;21.046;2023-03-01T11:20:39;13.87;;;10.70;;
11090;SDS011;5599;52.210;21.046;2023-03-01T11:23:10;15.90;;;12.13;;
11090;SDS011;5599;52.210;21.046;2023-03-01T11:25:42;16.87;;;10.90;;
11090;SDS011;5599;52.210;21.046;2023-03-01T11:28:14;15.83;;;11.10;;
11090;SDS011;5599;52.210;21.046;2023-03-01T11:30:48;14.67;;;11.60;;
11090;SDS011;5599;52.210;21.046;2023-03-01T11:33:35;14.37;;;11.40;;
11090;SDS011;5599;52.210;21.046;2023-03-01T11:36:13;16.67;;;11.73;;
11090;SDS011;5599;52.210;21.046;2023-03-01T11:38:51;14.90;;;11.93;;
11090;SDS011;5599;52.210;21.046;2023-03-01T11:41:25;16.33;;;11.07;;
11090;SDS011;5599;52.210;21.046;2023-03-01T11:43:59;15.37;;;11.93;;
11090;SDS011;5599;52.210;21.046;2023-03-01T11:49:45;16.17;;;11.23;;
11090;SDS011;5599;52.210;21.046;2023-03-01T11:52:26;17.00;;;11.77;;
11090;SDS011;5599;52.210;21.046;2023-03-01T11:55:11;15.80;;;11.67;;
11090;SDS011;5599;52.210;21.046;2023-03-01T11:57:52;15.57;;;11.90;;
11090;SDS011;5599;52.210;21.046;2023-03-01T12:00:44;13.90;;;10.93;;
11090;SDS011;5599;52.210;21.046;2023-03-01T12:03:32;15.67;;;11.43;;
11090;SDS011;5599;52.210;21.046;2023-03-01T12:09:12;12.87;;;11.00;;
11090;SDS011;5599;52.210;21.046;2023-03-01T12:12:01;15.17;;;11.40;;
11090;SDS011;5599;52.210;21.046;2023-03-01T12:14:49;14.20;;;11.03;;
11090;SDS011;5599;52.210;21.046;2023-03-01T12:17:38;15.40;;;11.00;;
11090;SDS011;5599;52.210;21.046;2023-03-01T12:20:27;16.10;;;11.53;;
11090;SDS011;5599;52.210;21.046;2023-03-01T12:25:55;12.67;;;11.03;;
11090;SDS011;5599;52.210;21.046;2023-03-01T12:28:37;14.17;;;11.13;;
11090;SDS011;5599;52.210;21.046;2023-03-01T12:34:27;14.00;;;11.80;;
11090;SDS011;5599;52.210;21.046;2023-03-01T12:37:13;16.73;;;11.73;;
11090;SDS011;5599;52.210;21.046;2023-03-01T12:39:54;14.20;;;11.60;;
11090;SDS011;5599;52.210;21.046;2023-03-01T12:42:33;12.93;;;10.90;;
11090;SDS011;5599;52.210;21.046;2023-03-01T12:45:21;14.88;;;11.52;;
11090;SDS011;5599;52.210;21.046;2023-03-01T12:48:20;16.67;;;12.10;;
11090;SDS011;5599;52.210;21.046;2023-03-01T12:51:01;14.10;;;10.83;;
11090;SDS011;5599;52.210;21.046;2023-03-01T12:53:39;14.33;;;11.47;;
11090;SDS011;5599;52.210;21.046;2023-03-01T12:56:13;14.83;;;11.20;;
11090;SDS011;5599;52.210;21.046;2023-03-01T12:58:48;12.20;;;10.83;;
11090;SDS011;5599;52.210;21.046;2023-03-01T13:01:30;15.80;;;11.00;;
11090;SDS011;5599;52.210;21.046;2023-03-01T13:07:04;13.47;;;10.37;;
11090;SDS011;5599;52.210;21.046;2023-03-01T13:09:54;15.57;;;11.83;;
11090;SDS011;5599;52.210;21.046;2023-03-01T13:15:31;12.90;;;10.70;;
11090;SDS011;5599;52.210;21.046;2023-03-01T13:18:03;14.60;;;10.93;;
11090;SDS011;5599;52.210;21.046;2023-03-01T13:20:55;12.30;;;10.23;;
11090;SDS011;5599;52.210;21.046;2023-03-01T13:23:26;14.17;;;10.90;;
11090;SDS011;5599;52.210;21.046;2023-03-01T13:26:04;13.73;;;10.47;;
11090;SDS011;5599;52.210;21.046;2023-03-01T13:28:53;13.80;;;10.37;;
11090;SDS011;5599;52.210;21.046;2023-03-01T13:34:44;13.93;;;11.63;;
11090;SDS011;5599;52.210;21.046;2023-03-01T13:37:19;12.30;;;10.60;;
11090;SDS011;5599;52.210;21.046;2023-03-01T13:39:50;14.27;;;11.47;;
11090;SDS011;5599;52.210;21.046;2023-03-01T13:42:35;13.67;;;10.10;;
11090;SDS011;5599;52.210;21.046;2023-03-01T13:45:15;15.00;;;10.23;;
11090;SDS011;5599;52.210;21.046;2023-03-01T13:47:50;13.60;;;11.30;;
11090;SDS011;5599;52.210;21.046;2023-03-01T13:50:25;12.33;;;10.70;;
11090;SDS011;5599;52.210;21.046;2023-03-01T13:53:00;14.47;;;11.67;;
11090;SDS011;5599;52.210;21.046;2023-03-01T13:55:36;14.23;;;12.77;;
11090;SDS011;5599;52.210;21.046;2023-03-01T13:58:16;15.80;;;13.10;;
11090;SDS011;5599;52.210;21.046;2023-03-01T14:00:54;13.83;;;12.13;;
11090;SDS011;5599;52.210;21.046;2023-03-01T14:03:26;16.97;;;12.50;;
11090;SDS011;5599;52.210;21.046;2023-03-01T14:05:58;13.90;;;11.77;;
11090;SDS011;5599;52.210;21.046;2023-03-01T14:08:41;13.57;;;11.50;;
11090;SDS011;5599;52.210;21.046;2023-03-01T14:14:26;14.40;;;12.00;;
11090;SDS011;5599;52.210;21.046;2023-03-01T14:17:16;11.80;;;10.27;;
11090;SDS011;5599;52.210;21.046;2023-03-01T14:19:58;14.27;;;11.30;;
11090;SDS011;5599;52.210;21.046;2023-03-01T14:22:32;17.13;;;11.43;;
11090;SDS011;5599;52.210;21.046;2023-03-01T14:25:04;14.15;;;11.38;;
11090;SDS011;5599;52.210;21.046;2023-03-01T14:27:44;13.20;;;10.80;;
11090;SDS011;5599;52.210;21.046;2023-03-01T14:30:24;18.53;;;10.90;;
11090;SDS011;5599;52.210;21.046;2023-03-01T14:32:56;16.00;;;11.07;;
11090;SDS011;5599;52.210;21.046;2023-03-01T14:35:27;18.03;;;10.80;;
11090;SDS011;5599;52.210;21.046;2023-03-01T14:37:58;13.37;;;10.20;;
11090;SDS011;5599;52.210;21.046;2023-03-01T14:40:28;14.33;;;10.43;;
11090;SDS011;5599;52.210;21.046;2023-03-01T14:43:01;14.43;;;11.13;;
11090;SDS011;5599;52.210;21.046;2023-03-01T14:45:39;13.90;;;11.47;;
11090;SDS011;5599;52.210;21.046;2023-03-01T14:48:15;14.37;;;11.83;;
11090;SDS011;5599;52.210;21.046;2023-03-01T14:50:45;16.27;;;11.37;;
11090;SDS011;5599;52.210;21.046;2023-03-01T14:53:16;13.20;;;11.23;;
11090;SDS011;5599;52.210;21.046;2023-03-01T14:55:47;15.33;;;11.67;;
11090;SDS011;5599;52.210;21.046;2023-03-01T14:58:21;18.63;;;11.97;;
11090;SDS011;5599;52.210;21.046;2023-03-01T15:00:53;15.87;;;11.47;;
11090;SDS011;5599;52.210;21.046;2023-03-01T15:03:26;15.10;;;11.13;;
11090;SDS011;5599;52.210;21.046;2023-03-01T15:05:59;16.87;;;12.77;;
11090;SDS011;5599;52.210;21.046;2023-03-01T15:08:30;14.23;;;11.37;;
11090;SDS011;5599;52.210;21.046;2023-03-01T15:11:03;25.97;;;13.90;;
11090;SDS011;5599;52.210;21.046;2023-03-01T15:13:35;17.57;;;12.27;;
11090;SDS011;5599;52.210;21.046;2023-03-01T15:16:09;14.67;;;11.10;;
11090;SDS011;5599;52.210;21.046;2023-03-01T15:18:43;13.43;;;10.13;;
11090;SDS011;5599;52.210;21.046;2023-03-01T15:21:15;12.00;;;10.13;;
11090;SDS011;5599;52.210;21.046;2023-03-01T15:23:50;11.77;;;10.43;;
11090;SDS011;5599;52.210;21.046;2023-03-01T15:26:25;14.13;;;10.40;;